createdAt,value
2018-04-17T00:01:53.089Z,9.80
2018-04-17T00:04:20.644Z,10.83
2018-04-17T00:06:48.180Z,8.87
2018-04-17T00:09:15.733Z,8.17
2018-04-17T00:11:43.260Z,9.03
2018-04-17T00:14:10.803Z,9.23
2018-04-17T00:16:39.089Z,9.57
2018-04-17T00:19:06.641Z,10.07
2018-04-17T00:21:34.932Z,10.97
2018-04-17T00:24:02.490Z,9.40
2018-04-17T00:26:30.020Z,10.60
2018-04-17T00:28:57.577Z,9.77
2018-04-17T00:31:25.105Z,9.83
2018-04-17T00:33:52.628Z,9.77
2018-04-17T00:36:21.222Z,10.10
2018-04-17T00:38:50.335Z,9.93
2018-04-17T00:41:19.202Z,10.33
2018-04-17T00:43:48.080Z,9.93
2018-04-17T00:46:17.168Z,9.63
2018-04-17T00:48:45.752Z,10.43
2018-04-17T00:51:15.098Z,9.40
2018-04-17T00:53:53.700Z,9.33
2018-04-17T00:56:21.255Z,9.90
2018-04-17T00:58:48.780Z,8.93
2018-04-17T01:01:16.327Z,9.27
2018-04-17T01:03:43.851Z,9.87
2018-04-17T01:06:11.415Z,9.37
2018-04-17T01:08:38.939Z,9.03
2018-04-17T01:11:07.260Z,9.30
2018-04-17T01:13:34.775Z,9.20
2018-04-17T01:16:03.090Z,8.37
2018-04-17T01:18:30.608Z,8.10
2018-04-17T01:20:58.927Z,8.43
2018-04-17T01:23:26.451Z,8.37
2018-04-17T01:25:54.768Z,7.90
2018-04-17T01:28:22.290Z,9.03
2018-04-17T01:30:50.604Z,8.67
2018-04-17T01:33:18.124Z,8.70
2018-04-17T01:35:46.437Z,9.00
2018-04-17T01:38:13.960Z,8.83
2018-04-17T01:40:42.244Z,9.83
2018-04-17T01:43:10.547Z,8.47
2018-04-17T01:45:38.088Z,8.00
2018-04-17T01:48:06.397Z,8.37
2018-04-17T01:50:33.921Z,9.20
2018-04-17T01:53:02.231Z,9.07
2018-04-17T01:55:29.749Z,9.37
2018-04-17T01:57:57.284Z,8.87
2018-04-17T02:00:24.800Z,7.90
2018-04-17T02:02:53.189Z,8.30
2018-04-17T02:05:20.708Z,7.97
2018-04-17T02:07:48.248Z,7.60
2018-04-17T02:10:15.773Z,8.60
2018-04-17T02:12:43.311Z,8.53
2018-04-17T02:15:10.828Z,7.87
2018-04-17T02:17:38.368Z,7.40
2018-04-17T02:20:05.889Z,8.00
2018-04-17T02:22:33.432Z,6.80
2018-04-17T02:25:01.708Z,5.60
2018-04-17T02:27:30.022Z,6.23
2018-04-17T02:29:57.539Z,6.63
2018-04-17T02:32:25.084Z,6.43
2018-04-17T02:34:52.607Z,8.10
2018-04-17T02:37:20.152Z,8.87
2018-04-17T02:39:47.668Z,7.97
2018-04-17T02:42:15.190Z,6.57
2018-04-17T02:44:42.730Z,7.77
2018-04-17T02:47:10.265Z,8.50
2018-04-17T02:49:38.573Z,7.50
2018-04-17T02:52:06.092Z,7.30
2018-04-17T02:54:33.636Z,7.27
2018-04-17T02:57:01.152Z,6.80
2018-04-17T02:59:28.689Z,6.73
2018-04-17T03:01:56.969Z,7.60
2018-04-17T03:04:25.278Z,6.80
2018-04-17T03:06:52.796Z,6.00
2018-04-17T03:09:21.113Z,7.07
2018-04-17T03:11:48.636Z,7.27
2018-04-17T03:14:16.944Z,7.97
2018-04-17T03:16:44.468Z,8.20
2018-04-17T03:19:12.770Z,6.67
2018-04-17T03:21:40.308Z,7.50
2018-04-17T03:24:08.612Z,8.10
2018-04-17T03:26:36.131Z,8.20
2018-04-17T03:29:03.677Z,8.30
2018-04-17T03:31:31.195Z,7.57
2018-04-17T03:33:58.745Z,7.97
2018-04-17T03:36:26.266Z,8.50
2018-04-17T03:38:53.808Z,7.37
2018-04-17T03:41:21.334Z,7.10
2018-04-17T03:43:48.852Z,6.73
2018-04-17T03:46:16.401Z,6.43
2018-04-17T03:48:43.916Z,6.87
2018-04-17T03:51:11.456Z,7.07
2018-04-17T03:53:39.741Z,6.77
2018-04-17T03:56:07.277Z,6.80
2018-04-17T03:58:35.561Z,6.50
2018-04-17T04:01:03.869Z,7.33
2018-04-17T04:03:31.398Z,7.60
2018-04-17T04:05:59.709Z,7.53
2018-04-17T04:08:27.219Z,6.40
2018-04-17T04:10:54.756Z,6.70
2018-04-17T04:13:22.272Z,7.27
2018-04-17T04:15:49.819Z,6.83
2018-04-17T04:18:29.887Z,7.30
2018-04-17T04:21:09.303Z,7.37
2018-04-17T04:23:49.400Z,7.60
2018-04-17T04:26:28.920Z,8.47
2018-04-17T04:28:56.439Z,7.70
2018-04-17T04:31:23.987Z,8.33
2018-04-17T04:33:51.509Z,8.43
2018-04-17T04:36:19.056Z,8.70
2018-04-17T04:38:46.577Z,8.67
2018-04-17T04:41:14.133Z,8.30
2018-04-17T04:43:41.652Z,8.40
2018-04-17T04:46:09.247Z,8.23
2018-04-17T04:48:36.771Z,8.90
2018-04-17T04:51:04.867Z,8.57
2018-04-17T04:53:32.887Z,8.40
2018-04-17T04:56:00.546Z,8.87
2018-04-17T04:58:28.924Z,8.77
2018-04-17T05:00:57.204Z,9.33
2018-04-17T05:03:25.519Z,9.57
2018-04-17T05:05:53.039Z,10.10
2018-04-17T05:08:21.369Z,8.67
2018-04-17T05:10:48.889Z,8.63
2018-04-17T05:13:17.209Z,8.47
2018-04-17T05:15:44.732Z,8.73
2018-04-17T05:18:12.285Z,9.77
2018-04-17T05:20:40.621Z,9.20
2018-04-17T05:23:08.173Z,8.27
2018-04-17T05:25:35.696Z,8.07
2018-04-17T05:28:03.240Z,7.97
2018-04-17T05:30:30.778Z,8.17
2018-04-17T05:32:58.329Z,8.47
2018-04-17T05:35:25.853Z,8.67
2018-04-17T05:37:53.413Z,10.55
2018-04-17T05:40:20.932Z,10.43
2018-04-17T05:42:49.246Z,10.80
2018-04-17T05:45:16.788Z,10.83
2018-04-17T05:47:45.095Z,10.73
2018-04-17T05:50:12.643Z,11.37
2018-04-17T05:52:40.200Z,12.10
2018-04-17T05:55:07.724Z,12.13
2018-04-17T05:57:35.274Z,11.40
2018-04-17T06:00:02.805Z,11.20
2018-04-17T06:02:30.348Z,12.13
2018-04-17T06:04:57.867Z,11.07
2018-04-17T06:07:26.155Z,10.77
2018-04-17T06:09:54.476Z,10.77
2018-04-17T06:12:22.000Z,10.67
2018-04-17T06:14:49.547Z,11.63
2018-04-17T06:17:17.833Z,11.60
2018-04-17T06:19:46.145Z,11.27
2018-04-17T06:22:13.664Z,11.30
2018-04-17T06:24:41.208Z,10.73
2018-04-17T06:27:08.730Z,11.10
2018-04-17T06:29:36.273Z,11.57
2018-04-17T06:32:03.799Z,12.30
2018-04-17T06:34:32.116Z,12.43
2018-04-17T06:36:59.632Z,13.40
2018-04-17T06:39:27.952Z,13.30
2018-04-17T06:41:55.512Z,13.50
2018-04-17T06:44:23.053Z,13.87
2018-04-17T06:46:50.585Z,14.53
2018-04-17T06:49:18.129Z,14.17
2018-04-17T06:51:45.643Z,14.90
2018-04-17T06:54:13.181Z,15.80
2018-04-17T06:56:41.481Z,17.23
2018-04-17T06:59:09.020Z,16.80
2018-04-17T07:01:37.316Z,17.50
2018-04-17T07:04:04.864Z,16.57
2018-04-17T07:06:33.147Z,17.37
2018-04-17T07:09:00.696Z,18.00
2018-04-17T07:11:28.985Z,17.63
2018-04-17T07:13:56.536Z,19.13
2018-04-17T07:16:24.828Z,20.37
2018-04-17T07:18:52.393Z,19.47
2018-04-17T07:21:19.925Z,19.80
2018-04-17T07:23:48.244Z,20.43
2018-04-17T07:26:15.793Z,21.20
2018-04-17T07:28:43.351Z,19.00
2018-04-17T07:31:10.883Z,20.43
2018-04-17T07:33:39.201Z,21.57
2018-04-17T07:36:06.729Z,21.03
2018-04-17T07:38:35.047Z,22.83
2018-04-17T07:41:02.579Z,24.77
2018-04-17T07:43:30.112Z,24.17
2018-04-17T07:45:57.668Z,23.93
2018-04-17T07:48:38.317Z,22.17
2018-04-17T07:51:05.858Z,21.30
2018-04-17T07:53:33.422Z,21.73
2018-04-17T07:56:00.987Z,20.30
2018-04-17T07:58:28.517Z,19.77
2018-04-17T08:00:56.073Z,19.17
2018-04-17T08:03:24.362Z,20.23
2018-04-17T08:05:51.914Z,19.37
2018-04-17T08:08:19.501Z,18.83
2018-04-17T08:10:47.783Z,18.27
2018-04-17T08:13:16.329Z,18.63
2018-04-17T08:15:43.904Z,18.77
2018-04-17T08:18:11.443Z,18.20
2018-04-17T08:20:39.770Z,19.40
2018-04-17T08:23:07.300Z,18.77
2018-04-17T08:25:34.867Z,18.87
2018-04-17T08:28:02.402Z,17.83
2018-04-17T08:30:29.953Z,18.27
2018-04-17T08:32:57.493Z,17.87
2018-04-17T08:35:25.053Z,17.10
2018-04-17T08:37:52.592Z,16.87
2018-04-17T08:40:20.157Z,17.37
2018-04-17T08:42:47.739Z,17.00
2018-04-17T08:45:15.273Z,17.83
2018-04-17T08:47:42.810Z,17.63
2018-04-17T08:50:10.371Z,18.20
2018-04-17T08:52:37.906Z,17.37
2018-04-17T08:55:05.474Z,17.67
2018-04-17T08:57:33.782Z,21.93
2018-04-17T09:00:01.346Z,18.80
2018-04-17T09:02:28.885Z,18.93
2018-04-17T09:04:56.446Z,18.63
2018-04-17T09:07:23.979Z,18.63
2018-04-17T09:09:51.537Z,18.70
2018-04-17T09:12:19.077Z,18.47
2018-04-17T09:14:46.629Z,17.30
2018-04-17T09:17:14.158Z,19.03
2018-04-17T09:19:41.689Z,17.10
2018-04-17T09:22:09.249Z,17.10
2018-04-17T09:24:36.786Z,16.70
2018-04-17T09:27:04.363Z,14.20
2018-04-17T09:29:31.909Z,10.53
2018-04-17T09:31:59.465Z,13.90
2018-04-17T09:34:26.996Z,16.80
2018-04-17T09:36:54.558Z,16.53
2018-04-17T09:39:22.089Z,15.80
2018-04-17T09:41:49.666Z,15.77
2018-04-17T09:44:17.210Z,14.67
2018-04-17T09:46:44.773Z,15.57
2018-04-17T09:49:12.316Z,12.53
2018-04-17T09:51:39.876Z,10.70
2018-04-17T09:54:07.425Z,11.23
2018-04-17T09:56:34.990Z,5.40
2018-04-17T09:59:02.534Z,6.30
2018-04-17T10:01:30.097Z,6.50
2018-04-17T10:03:57.633Z,7.50
2018-04-17T10:06:25.198Z,8.57
2018-04-17T10:08:52.760Z,9.67
2018-04-17T10:11:20.315Z,10.53
2018-04-17T10:13:47.854Z,11.20
2018-04-17T10:16:15.424Z,10.13
2018-04-17T10:18:42.963Z,11.50
2018-04-17T10:21:10.535Z,10.87
2018-04-17T10:23:38.082Z,8.37
2018-04-17T10:26:05.633Z,7.63
2018-04-17T10:28:33.166Z,8.03
2018-04-17T10:31:00.712Z,8.03
2018-04-17T10:33:28.235Z,6.83
2018-04-17T10:35:55.793Z,7.83
2018-04-17T10:38:23.309Z,6.80
2018-04-17T10:40:51.632Z,7.50
2018-04-17T10:43:19.151Z,6.73
2018-04-17T10:45:47.465Z,7.27
2018-04-17T10:48:14.992Z,7.97
2018-04-17T10:50:43.274Z,7.37
2018-04-17T10:53:11.589Z,7.97
2018-04-17T10:55:39.121Z,8.60
2018-04-17T10:58:06.677Z,7.90
2018-04-17T11:00:34.212Z,8.37
2018-04-17T11:03:01.764Z,8.13
2018-04-17T11:05:29.292Z,8.47
2018-04-17T11:07:56.849Z,9.10
2018-04-17T11:10:24.446Z,8.87
2018-04-17T11:12:52.528Z,9.23
2018-04-17T11:15:20.066Z,8.40
2018-04-17T11:17:47.612Z,10.33
2018-04-17T11:20:15.136Z,8.63
2018-04-17T11:22:42.705Z,8.93
2018-04-17T11:25:10.233Z,8.63
2018-04-17T11:27:38.556Z,9.80
2018-04-17T11:30:06.076Z,11.47
2018-04-17T11:32:34.389Z,10.07
2018-04-17T11:35:01.916Z,10.40
2018-04-17T11:37:30.236Z,9.27
2018-04-17T11:39:57.756Z,10.07
2018-04-17T11:42:26.077Z,10.23
2018-04-17T11:44:53.605Z,9.80
2018-04-17T11:47:21.941Z,9.40
2018-04-17T11:49:49.459Z,8.97
2018-04-17T11:52:16.980Z,9.30
2018-04-17T11:54:45.301Z,9.20
2018-04-17T11:57:12.829Z,9.80
2018-04-17T11:59:41.148Z,8.97
2018-04-17T12:02:08.699Z,9.13
2018-04-17T12:04:36.261Z,9.70
2018-04-17T12:07:03.777Z,9.43
2018-04-17T12:09:32.097Z,9.30
2018-04-17T12:11:59.625Z,9.07
2018-04-17T12:14:27.940Z,8.73
2018-04-17T12:16:55.503Z,8.83
2018-04-17T12:19:23.048Z,7.73
2018-04-17T12:21:50.572Z,6.80
2018-04-17T12:24:18.129Z,7.00
2018-04-17T12:26:45.655Z,6.73
2018-04-17T12:29:13.207Z,6.60
2018-04-17T12:31:40.723Z,4.97
2018-04-17T12:34:09.029Z,5.20
2018-04-17T12:36:36.559Z,5.07
2018-04-17T12:39:04.888Z,5.53
2018-04-17T12:41:32.406Z,5.27
2018-04-17T12:44:00.715Z,4.70
2018-04-17T12:46:28.242Z,4.30
2018-04-17T12:48:56.557Z,4.70
2018-04-17T12:51:24.074Z,4.33
2018-04-17T12:53:52.360Z,4.20
2018-04-17T12:56:20.671Z,4.60
2018-04-17T12:58:48.183Z,4.30
2018-04-17T13:01:16.497Z,4.10
2018-04-17T13:03:44.024Z,4.60
2018-04-17T13:06:12.336Z,4.87
2018-04-17T13:08:39.848Z,5.13
2018-04-17T13:11:07.405Z,4.60
2018-04-17T13:13:34.923Z,5.20
2018-04-17T13:16:02.470Z,5.07
2018-04-17T13:18:29.985Z,4.63
2018-04-17T13:20:57.528Z,5.33
2018-04-17T13:23:25.043Z,5.50
2018-04-17T13:25:52.583Z,5.20
2018-04-17T13:28:20.877Z,4.57
2018-04-17T13:30:48.424Z,5.83
2018-04-17T13:33:16.725Z,5.90
2018-04-17T13:35:44.268Z,5.27
2018-04-17T13:38:11.791Z,6.10
2018-04-17T13:40:39.340Z,6.93
2018-04-17T13:43:06.857Z,5.70
2018-04-17T13:45:34.400Z,6.00
2018-04-17T13:48:02.684Z,6.37
2018-04-17T13:50:31.000Z,6.97
2018-04-17T13:52:58.530Z,6.80
2018-04-17T13:55:26.049Z,6.33
2018-04-17T13:57:53.598Z,6.10
2018-04-17T14:00:21.115Z,6.07
2018-04-17T14:02:48.672Z,5.97
2018-04-17T14:05:16.192Z,6.77
2018-04-17T14:07:43.736Z,6.73
2018-04-17T14:10:11.252Z,6.07
2018-04-17T14:12:38.797Z,6.10
2018-04-17T14:15:07.089Z,6.70
2018-04-17T14:17:34.631Z,6.53
2018-04-17T14:20:02.918Z,6.83
2018-04-17T14:22:30.467Z,7.40
2018-04-17T14:24:58.752Z,6.87
2018-04-17T14:27:27.066Z,6.93
2018-04-17T14:29:54.594Z,7.63
2018-04-17T14:32:22.145Z,7.70
2018-04-17T14:34:50.438Z,7.40
2018-04-17T14:37:17.990Z,7.60
2018-04-17T14:39:45.520Z,6.83
2018-04-17T14:42:13.067Z,7.40
2018-04-17T14:44:40.596Z,7.47
2018-04-17T14:47:08.143Z,7.60
2018-04-17T14:49:35.665Z,7.47
2018-04-17T14:52:03.220Z,6.90
2018-04-17T14:54:30.740Z,7.23
2018-04-17T14:56:58.293Z,7.43
2018-04-17T14:59:25.812Z,7.83
2018-04-17T15:01:54.138Z,8.13
2018-04-17T15:04:21.696Z,8.23
2018-04-17T15:06:49.225Z,8.35
2018-04-17T15:09:17.540Z,7.53
2018-04-17T15:11:45.065Z,7.53
2018-04-17T15:14:12.607Z,7.53
2018-04-17T15:16:40.901Z,7.43
2018-04-17T15:19:09.223Z,7.65
2018-04-17T15:21:36.757Z,7.78
2018-04-17T15:24:04.314Z,8.68
2018-04-17T15:26:31.839Z,7.97
2018-04-17T15:29:00.151Z,7.90
2018-04-17T15:31:27.677Z,7.65
2018-04-17T15:33:56.004Z,7.68
2018-04-17T15:36:23.535Z,8.82
2018-04-17T15:38:51.848Z,8.30
2018-04-17T15:41:19.422Z,8.13
2018-04-17T15:43:46.973Z,8.73
2018-04-17T15:46:14.501Z,7.60
2018-04-17T15:48:45.863Z,7.30
2018-04-17T15:51:13.422Z,8.45
2018-04-17T15:53:40.957Z,9.25
2018-04-17T15:56:10.718Z,9.00
2018-04-17T15:58:38.249Z,10.35
2018-04-17T16:01:05.810Z,9.68
2018-04-17T16:03:34.545Z,9.75
2018-04-17T16:06:03.165Z,8.98
2018-04-17T16:08:31.769Z,9.45
2018-04-17T16:11:00.359Z,9.00
2018-04-17T16:13:28.995Z,9.17
2018-04-17T16:15:56.797Z,10.38
2018-04-17T16:18:24.330Z,9.20
2018-04-17T16:20:51.885Z,8.85
2018-04-17T16:23:19.417Z,8.90
2018-04-17T16:25:46.969Z,8.40
2018-04-17T16:28:14.510Z,8.90
2018-04-17T16:30:42.075Z,8.00
2018-04-17T16:33:09.615Z,9.20
2018-04-17T16:35:37.178Z,8.77
2018-04-17T16:38:04.716Z,9.65
2018-04-17T16:40:32.277Z,9.15
2018-04-17T16:42:59.809Z,8.80
2018-04-17T16:45:27.370Z,8.27
2018-04-17T16:47:54.904Z,9.37
2018-04-17T16:50:22.468Z,8.70
2018-04-17T16:52:49.992Z,8.20
2018-04-17T16:55:19.202Z,9.60
2018-04-17T16:57:46.737Z,10.30
2018-04-17T17:00:14.306Z,9.07
2018-04-17T17:02:41.839Z,8.80
2018-04-17T17:05:09.405Z,9.17
2018-04-17T17:07:36.942Z,9.23
2018-04-17T17:10:04.519Z,8.77
2018-04-17T17:12:32.055Z,10.27
2018-04-17T17:14:59.590Z,9.93
2018-04-17T17:17:27.142Z,9.07
2018-04-17T17:19:54.673Z,9.77
2018-04-17T17:22:22.227Z,9.40
2018-04-17T17:24:49.770Z,9.97
2018-04-17T17:27:17.333Z,10.00
2018-04-17T17:29:45.636Z,10.57
2018-04-17T17:32:13.192Z,10.33
2018-04-17T17:34:40.719Z,8.60
2018-04-17T17:37:08.265Z,9.17
2018-04-17T17:39:35.824Z,9.20
2018-04-17T17:42:03.381Z,8.47
2018-04-17T17:44:30.907Z,8.43
2018-04-17T17:46:59.226Z,9.17
2018-04-17T17:49:26.760Z,9.63
2018-04-17T17:51:54.313Z,8.67
2018-04-17T17:54:22.613Z,8.57
2018-04-17T17:56:50.176Z,9.30
2018-04-17T17:59:17.972Z,8.10
2018-04-17T18:01:45.510Z,8.67
2018-04-17T18:04:13.060Z,8.80
2018-04-17T18:06:40.592Z,8.43
2018-04-17T18:09:08.917Z,8.87
2018-04-17T18:11:36.456Z,8.63
2018-04-17T18:14:04.011Z,8.67
2018-04-17T18:16:31.551Z,8.63
2018-04-17T18:18:59.874Z,8.67
2018-04-17T18:21:27.413Z,8.80
2018-04-17T18:23:54.965Z,8.33
2018-04-17T18:26:22.506Z,8.77
2018-04-17T18:28:50.825Z,8.93
2018-04-17T18:31:18.365Z,10.03
2018-04-17T18:33:45.921Z,8.70
2018-04-17T18:36:13.461Z,8.83
2018-04-17T18:38:41.788Z,9.30
2018-04-17T18:41:09.315Z,8.77
2018-04-17T18:43:37.685Z,8.63
2018-04-17T18:46:05.184Z,8.20
2018-04-17T18:48:32.743Z,8.73
2018-04-17T18:51:00.285Z,8.40
2018-04-17T18:53:27.837Z,8.10
2018-04-17T18:55:55.374Z,8.37
2018-04-17T18:58:22.931Z,7.90
2018-04-17T19:00:50.513Z,8.67
2018-04-17T19:03:18.813Z,8.97
2018-04-17T19:05:46.372Z,8.50
2018-04-17T19:08:13.915Z,8.00
2018-04-17T19:10:41.468Z,9.23
2018-04-17T19:13:09.765Z,8.80
2018-04-17T19:15:37.319Z,8.60
2018-04-17T19:18:04.851Z,8.37
2018-04-17T19:20:33.174Z,8.27
2018-04-17T19:23:00.708Z,7.80
2018-04-17T19:25:29.108Z,8.10
2018-04-17T19:27:56.633Z,8.30
2018-04-17T19:30:24.943Z,8.00
2018-04-17T19:32:52.924Z,8.23
2018-04-17T19:35:20.485Z,8.13
2018-04-17T19:37:48.026Z,8.80
2018-04-17T19:40:15.810Z,8.60
2018-04-17T19:42:43.342Z,8.63
2018-04-17T19:45:11.713Z,8.70
2018-04-17T19:47:40.067Z,8.17
2018-04-17T19:50:08.429Z,8.33
2018-04-17T19:52:35.978Z,7.93
2018-04-17T19:55:03.601Z,7.97
2018-04-17T19:57:31.922Z,7.93
2018-04-17T19:59:59.547Z,8.23
2018-04-17T20:02:27.073Z,8.33
2018-04-17T20:04:54.774Z,7.90
2018-04-17T20:07:22.341Z,7.83
2018-04-17T20:09:50.021Z,7.83
2018-04-17T20:12:17.589Z,7.83
2018-04-17T20:14:45.822Z,7.63
2018-04-17T20:17:13.469Z,7.70
2018-04-17T20:19:41.550Z,7.97
2018-04-17T20:22:09.217Z,7.87
2018-04-17T20:24:37.546Z,8.43
2018-04-17T20:27:05.096Z,8.03
2018-04-17T20:29:33.022Z,8.13
2018-04-17T20:32:01.944Z,8.10
2018-04-17T20:34:29.468Z,8.43
2018-04-17T20:36:57.804Z,8.57
2018-04-17T20:39:25.360Z,8.00
2018-04-17T20:41:52.919Z,7.53
2018-04-17T20:44:20.721Z,8.13
2018-04-17T20:46:48.285Z,7.33
2018-04-17T20:49:15.817Z,7.73
2018-04-17T20:51:43.364Z,8.33
2018-04-17T20:54:10.883Z,8.20
2018-04-17T20:56:39.201Z,7.63
2018-04-17T20:59:06.726Z,7.23
2018-04-17T21:01:35.044Z,7.50
2018-04-17T21:04:02.568Z,8.50
2018-04-17T21:06:30.856Z,8.03
2018-04-17T21:08:58.400Z,7.80
2018-04-17T21:11:26.683Z,8.37
2018-04-17T21:13:54.999Z,8.90
2018-04-17T21:16:22.524Z,8.07
2018-04-17T21:18:50.840Z,8.73
2018-04-17T21:21:18.364Z,8.80
2018-04-17T21:23:46.684Z,8.53
2018-04-17T21:26:14.211Z,8.10
2018-04-17T21:28:41.757Z,7.93
2018-04-17T21:31:10.043Z,8.17
2018-04-17T21:33:37.593Z,7.53
2018-04-17T21:36:05.884Z,8.20
2018-04-17T21:38:33.435Z,7.60
2018-04-17T21:41:01.720Z,8.07
2018-04-17T21:43:29.268Z,7.70
2018-04-17T21:45:57.561Z,8.43
2018-04-17T21:48:25.108Z,7.70
2018-04-17T21:50:53.406Z,7.17
2018-04-17T21:53:20.954Z,7.93
2018-04-17T21:55:48.495Z,7.87
2018-04-17T21:58:16.808Z,8.27
2018-04-17T22:00:44.328Z,8.20
2018-04-17T22:03:11.872Z,8.40
2018-04-17T22:05:39.395Z,8.50
2018-04-17T22:08:06.917Z,7.97
2018-04-17T22:10:35.224Z,7.30
2018-04-17T22:13:02.753Z,8.27
2018-04-17T22:15:31.076Z,8.60
2018-04-17T22:17:58.605Z,8.80
2018-04-17T22:20:26.923Z,8.60
2018-04-17T22:22:54.465Z,8.77
2018-04-17T22:25:22.016Z,8.00
2018-04-17T22:27:49.548Z,8.03
2018-04-17T22:30:17.855Z,7.67
2018-04-17T22:32:45.378Z,8.83
2018-04-17T22:35:13.371Z,7.80
2018-04-17T22:37:40.904Z,8.43
2018-04-17T22:40:08.447Z,7.40
2018-04-17T22:42:35.969Z,7.90
2018-04-17T22:45:03.532Z,8.23
2018-04-17T22:47:31.057Z,7.53
2018-04-17T22:49:59.371Z,8.20
2018-04-17T22:52:26.896Z,7.70
2018-04-17T22:54:55.211Z,8.47
2018-04-17T22:57:22.745Z,8.03
2018-04-17T22:59:51.056Z,8.23
2018-04-17T23:02:18.581Z,8.10
2018-04-17T23:04:46.141Z,7.60
2018-04-17T23:07:14.432Z,7.30
2018-04-17T23:09:41.971Z,8.03
2018-04-17T23:12:10.304Z,7.37
2018-04-17T23:14:37.869Z,7.17
2018-04-17T23:17:05.388Z,7.27
2018-04-17T23:19:32.931Z,7.77
2018-04-17T23:22:01.226Z,7.93
2018-04-17T23:24:28.748Z,7.87
2018-04-17T23:26:56.299Z,7.00
2018-04-17T23:29:23.845Z,7.77
2018-04-17T23:31:51.389Z,7.07
2018-04-17T23:34:18.910Z,7.50
2018-04-17T23:36:47.226Z,7.73
2018-04-17T23:39:14.748Z,7.67
2018-04-17T23:41:43.051Z,7.37
2018-04-17T23:44:10.577Z,6.87
2018-04-17T23:46:38.912Z,7.17
2018-04-17T23:49:06.433Z,6.40
2018-04-17T23:51:33.989Z,6.37
2018-04-17T23:54:02.280Z,7.30
2018-04-17T23:56:29.875Z,7.30
2018-04-17T23:58:57.391Z,7.50
